createdAt,value
2023-05-12T00:03:51.621Z,997.02
2023-05-12T00:08:54.321Z,997.02
2023-05-12T00:13:51.312Z,997.01
2023-05-12T00:18:51.244Z,997.01
2023-05-12T00:23:51.157Z,996.86
2023-05-12T00:28:51.114Z,996.91
2023-05-12T00:33:50.982Z,996.88
2023-05-12T00:38:51.059Z,996.90
2023-05-12T00:43:50.819Z,997.00
2023-05-12T00:48:50.786Z,996.93
2023-05-12T00:53:50.859Z,996.94
2023-05-12T00:58:50.764Z,996.88
2023-05-12T01:03:50.628Z,996.89
2023-05-12T01:08:53.558Z,996.86
2023-05-12T01:13:50.478Z,996.84
2023-05-12T01:18:50.550Z,996.87
2023-05-12T01:23:50.312Z,996.83
2023-05-12T01:28:50.277Z,996.83
2023-05-12T01:33:50.186Z,996.80
2023-05-12T01:38:50.168Z,996.84
2023-05-12T01:43:50.062Z,996.83
2023-05-12T01:48:50.026Z,996.80
2023-05-12T01:53:49.951Z,996.77
2023-05-12T01:58:49.936Z,996.79
2023-05-12T02:03:49.923Z,996.81
2023-05-12T02:08:53.005Z,996.81
2023-05-12T02:13:49.682Z,996.86
2023-05-12T02:18:49.668Z,996.84
2023-05-12T02:23:49.621Z,996.85
2023-05-12T02:28:49.539Z,996.84
2023-05-12T02:33:49.454Z,996.87
2023-05-12T02:38:49.420Z,996.94
2023-05-12T02:43:49.325Z,996.98
2023-05-12T02:48:49.300Z,996.90
2023-05-12T02:53:49.162Z,996.94
2023-05-12T02:58:49.154Z,996.87
2023-05-12T03:03:49.195Z,996.97
2023-05-12T03:08:52.025Z,996.94
2023-05-12T03:13:48.928Z,997.01
2023-05-12T03:18:48.986Z,997.01
2023-05-12T03:23:48.806Z,996.99
2023-05-12T03:28:48.748Z,996.94
2023-05-12T03:33:48.645Z,997.01
2023-05-12T03:38:48.601Z,996.97
2023-05-12T03:43:48.504Z,996.87
2023-05-12T03:48:48.506Z,996.82
2023-05-12T03:53:48.386Z,996.89
2023-05-12T03:58:48.462Z,996.86
2023-05-12T04:03:48.389Z,996.83
2023-05-12T04:08:51.286Z,996.85
2023-05-12T04:13:48.141Z,996.90
2023-05-12T04:18:48.181Z,996.93
2023-05-12T04:23:48.288Z,997.00
2023-05-12T04:28:48.175Z,996.95
2023-05-12T04:33:48.553Z,997.02
2023-05-12T04:38:47.889Z,997.10
2023-05-12T04:48:47.766Z,997.10
2023-05-12T04:53:47.616Z,997.09
2023-05-12T04:58:47.571Z,997.12
2023-05-12T05:03:47.597Z,997.17
2023-05-12T05:08:50.471Z,997.08
2023-05-12T05:13:47.378Z,997.11
2023-05-12T05:18:47.338Z,997.15
2023-05-12T05:23:47.184Z,997.14
2023-05-12T05:28:47.166Z,997.01
2023-05-12T05:33:47.080Z,997.06
2023-05-12T05:38:47.122Z,997.04
2023-05-12T05:43:46.964Z,997.05
2023-05-12T05:48:46.917Z,997.11
2023-05-12T05:53:46.809Z,997.11
2023-05-12T05:58:46.792Z,997.19
2023-05-12T06:03:46.741Z,997.24
2023-05-12T06:08:49.664Z,997.26
2023-05-12T06:13:46.577Z,997.29
2023-05-12T06:18:46.586Z,997.27
2023-05-12T06:23:46.477Z,997.28
2023-05-12T06:28:46.418Z,997.18
2023-05-12T06:33:46.295Z,997.19
2023-05-12T06:38:46.308Z,997.16
2023-05-12T06:43:46.208Z,997.17
2023-05-12T06:48:46.498Z,997.17
2023-05-12T06:53:46.044Z,997.14
2023-05-12T06:58:46.011Z,997.20
2023-05-12T07:03:46.021Z,997.15
2023-05-12T07:08:48.871Z,997.08
2023-05-12T07:13:45.834Z,997.10
2023-05-12T07:18:45.834Z,997.08
2023-05-12T07:23:45.644Z,997.00
2023-05-12T07:28:45.635Z,996.93
2023-05-12T07:33:45.522Z,996.91
2023-05-12T07:38:45.494Z,996.90
2023-05-12T07:43:45.415Z,996.88
2023-05-12T07:48:45.353Z,996.90
2023-05-12T07:53:45.287Z,996.84
2023-05-12T07:58:47.299Z,996.83
2023-05-12T08:03:45.217Z,996.85
2023-05-12T08:08:48.090Z,996.95
2023-05-12T08:13:45.012Z,996.93
2023-05-12T08:18:45.018Z,996.96
2023-05-12T08:23:44.898Z,997.08
2023-05-12T08:28:44.848Z,997.09
2023-05-12T08:33:51.820Z,997.04
2023-05-12T08:38:45.738Z,997.09
2023-05-12T08:43:44.621Z,997.08
2023-05-12T08:48:44.568Z,997.02
2023-05-12T08:53:44.450Z,996.97
2023-05-12T08:58:44.625Z,997.01
2023-05-12T09:03:44.325Z,997.00
2023-05-12T09:08:47.349Z,997.02
2023-05-12T09:13:44.254Z,996.96
2023-05-12T09:18:44.261Z,996.97
2023-05-12T09:23:44.115Z,996.97
2023-05-12T09:28:44.098Z,996.94
2023-05-12T09:33:43.948Z,996.94
2023-05-12T09:38:43.965Z,996.86
2023-05-12T09:43:43.862Z,996.86
2023-05-12T09:48:43.825Z,996.90
2023-05-12T09:53:43.727Z,996.91
2023-05-12T09:58:43.640Z,996.98
2023-05-12T10:03:43.542Z,996.97
2023-05-12T10:08:46.748Z,996.93
2023-05-12T10:13:43.401Z,996.92
2023-05-12T10:18:43.505Z,996.89
2023-05-12T10:23:43.556Z,996.88
2023-05-12T10:28:43.277Z,996.81
2023-05-12T10:33:43.720Z,996.79
2023-05-12T10:38:43.205Z,996.73
2023-05-12T10:43:43.018Z,996.67
2023-05-12T10:48:42.997Z,996.67
2023-05-12T10:53:51.193Z,996.68
2023-05-12T10:58:44.122Z,996.70
2023-05-12T11:03:43.764Z,996.60
2023-05-12T11:08:46.160Z,996.62
2023-05-12T11:13:42.727Z,996.61
2023-05-12T11:18:43.016Z,996.55
2023-05-12T11:23:42.527Z,996.62
2023-05-12T11:28:42.573Z,996.52
2023-05-12T11:33:42.411Z,996.57
2023-05-12T11:38:43.102Z,996.59
2023-05-12T11:43:42.393Z,996.63
2023-05-12T11:48:42.293Z,996.67
2023-05-12T11:53:42.098Z,996.61
2023-05-12T11:58:42.064Z,996.73
2023-05-12T12:03:42.012Z,996.78
2023-05-12T12:08:44.946Z,996.87
2023-05-12T12:13:41.835Z,996.87
2023-05-12T12:18:41.869Z,996.86
2023-05-12T12:23:50.830Z,996.82
2023-05-12T12:28:42.935Z,996.93
2023-05-12T12:33:41.611Z,996.91
2023-05-12T12:38:41.556Z,996.83
2023-05-12T12:43:41.467Z,996.87
2023-05-12T12:48:41.397Z,996.98
2023-05-12T12:53:41.422Z,996.95
2023-05-12T12:58:41.300Z,996.93
2023-05-12T13:03:41.216Z,996.89
2023-05-12T13:08:44.187Z,996.90
2023-05-12T13:13:41.074Z,996.85
2023-05-12T13:18:41.157Z,996.77
2023-05-12T13:23:40.975Z,996.78
2023-05-12T13:28:40.903Z,996.83
2023-05-12T13:33:40.791Z,996.89
2023-05-12T13:38:40.822Z,996.91
2023-05-12T13:43:40.692Z,996.84
2023-05-12T13:48:40.696Z,996.89
2023-05-12T13:53:40.516Z,996.86
2023-05-12T13:58:40.705Z,996.76
2023-05-12T14:03:40.449Z,996.73
2023-05-12T14:08:43.404Z,996.69
2023-05-12T14:13:40.294Z,996.74
2023-05-12T14:18:42.594Z,996.79
2023-05-12T14:23:40.186Z,996.85
2023-05-12T14:28:40.169Z,996.82
2023-05-12T14:33:40.015Z,996.86
2023-05-12T14:38:40.018Z,996.93
2023-05-12T14:43:39.910Z,996.91
2023-05-12T14:48:39.954Z,996.94
2023-05-12T14:53:39.797Z,997.02
2023-05-12T14:58:39.897Z,996.89
2023-05-12T15:03:39.743Z,996.81
2023-05-12T15:08:42.722Z,996.91
2023-05-12T15:13:39.525Z,996.99
2023-05-12T15:18:39.516Z,996.93
2023-05-12T15:23:39.342Z,996.96
2023-05-12T15:28:39.372Z,997.03
2023-05-12T15:33:39.222Z,997.04
2023-05-12T15:38:39.692Z,997.04
2023-05-12T15:43:39.172Z,996.93
2023-05-12T15:48:39.218Z,996.97
2023-05-12T15:53:39.015Z,996.98
2023-05-12T15:58:39.036Z,996.98
2023-05-12T16:03:38.910Z,997.09
2023-05-12T16:08:41.882Z,997.04
2023-05-12T16:13:38.749Z,996.96
2023-05-12T16:18:38.920Z,996.93
2023-05-12T16:23:38.763Z,996.94
2023-05-12T16:28:38.550Z,996.87
2023-05-12T16:33:38.501Z,996.93
2023-05-12T16:38:38.395Z,996.80
2023-05-12T16:43:38.328Z,996.85
2023-05-12T16:48:38.594Z,996.83
2023-05-12T16:53:38.209Z,996.84
2023-05-12T16:58:38.156Z,996.94
2023-05-12T17:03:38.172Z,996.96
2023-05-12T17:08:41.386Z,997.02
2023-05-12T17:13:37.973Z,997.05
2023-05-12T17:23:37.767Z,997.23
2023-05-12T17:28:37.726Z,997.32
2023-05-12T17:33:37.658Z,997.30
2023-05-12T17:38:37.616Z,997.26
2023-05-12T17:43:37.526Z,997.42
2023-05-12T17:48:37.531Z,997.43
2023-05-12T17:53:37.458Z,997.33
2023-05-12T17:58:37.426Z,997.31
2023-05-12T18:03:37.316Z,997.34
2023-05-12T18:08:40.248Z,997.38
2023-05-12T18:13:37.142Z,997.46
2023-05-12T18:18:37.172Z,997.46
2023-05-12T18:23:37.082Z,997.51
2023-05-12T18:28:37.014Z,997.61
2023-05-12T18:33:36.876Z,997.80
2023-05-12T18:38:36.897Z,997.92
2023-05-12T18:43:36.714Z,997.95
2023-05-12T18:48:36.726Z,998.01
2023-05-12T18:53:36.599Z,998.06
2023-05-12T18:58:36.572Z,998.05
2023-05-12T19:03:36.472Z,998.12
2023-05-12T19:08:39.461Z,998.17
2023-05-12T19:13:36.341Z,998.27
2023-05-12T19:18:36.331Z,998.29
2023-05-12T19:23:36.231Z,998.35
2023-05-12T19:28:36.234Z,998.44
2023-05-12T19:33:36.089Z,998.53
2023-05-12T19:38:36.092Z,998.58
2023-05-12T19:43:35.953Z,998.60
2023-05-12T19:48:35.920Z,998.71
2023-05-12T19:53:35.831Z,998.82
2023-05-12T19:58:35.800Z,998.96
2023-05-12T20:03:35.718Z,999.01
2023-05-12T20:08:38.688Z,998.99
2023-05-12T20:13:35.559Z,999.04
2023-05-12T20:18:35.550Z,999.03
2023-05-12T20:23:35.496Z,998.98
2023-05-12T20:28:35.523Z,998.97
2023-05-12T20:33:35.342Z,999.00
2023-05-12T20:38:35.308Z,999.06
2023-05-12T20:43:35.177Z,998.97
2023-05-12T20:48:35.161Z,998.99
2023-05-12T20:53:35.081Z,999.10
2023-05-12T20:58:35.036Z,999.12
2023-05-12T21:03:34.928Z,999.12
2023-05-12T21:08:37.923Z,999.12
2023-05-12T21:13:34.825Z,999.18
2023-05-12T21:18:34.789Z,999.22
2023-05-12T21:23:34.710Z,999.22
2023-05-12T21:28:34.602Z,999.23
2023-05-12T21:33:34.525Z,999.39
2023-05-12T21:38:34.529Z,999.43
2023-05-12T21:43:34.354Z,999.40
2023-05-12T21:48:34.333Z,999.47
2023-05-12T21:53:34.232Z,999.50
2023-05-12T21:58:34.231Z,999.54
2023-05-12T22:03:34.138Z,999.51
2023-05-12T22:08:37.164Z,999.47
2023-05-12T22:13:34.077Z,999.43
2023-05-12T22:18:33.980Z,999.59
2023-05-12T22:23:34.010Z,999.70
2023-05-12T22:28:33.894Z,999.70
2023-05-12T22:33:33.791Z,999.66
2023-05-12T22:38:33.778Z,999.71
2023-05-12T22:43:33.666Z,999.72
2023-05-12T22:48:38.706Z,999.77
2023-05-12T22:53:34.547Z,999.81
2023-05-12T22:58:33.420Z,999.87
2023-05-12T23:03:33.427Z,999.83
2023-05-12T23:08:36.365Z,999.92
2023-05-12T23:13:33.252Z,999.92
2023-05-12T23:18:33.229Z,999.96
2023-05-12T23:23:33.180Z,1000.02
2023-05-12T23:28:33.059Z,999.99
2023-05-12T23:33:33.100Z,999.98
2023-05-12T23:38:32.964Z,1000.01
2023-05-12T23:43:32.836Z,1000.03
2023-05-12T23:48:32.815Z,1000.09
2023-05-12T23:53:32.712Z,1000.05
2023-05-12T23:58:32.842Z,999.98
